sensor_id;sensor_type;location;lat;lon;timestamp;pressure;altitude;pressure_sealevel;temperature;humidity
46111;BME280;31849;55.992;37.252;2022-09-16T00:01:56;97676.44;;;7.08;71.93
46111;BME280;31849;55.992;37.252;2022-09-16T00:07:02;97674.78;;;7.04;71.68
46111;BME280;31849;55.992;37.252;2022-09-16T00:12:06;97680.94;;;6.95;72.26
46111;BME280;31849;55.992;37.252;2022-09-16T00:17:10;97680.06;;;6.96;71.78
46111;BME280;31849;55.992;37.252;2022-09-16T00:22:16;97675.72;;;6.98;72.45
46111;BME280;31849;55.992;37.252;2022-09-16T00:27:20;97678.34;;;6.95;71.89
46111;BME280;31849;55.992;37.252;2022-09-16T00:32:24;97676.53;;;7.00;72.24
46111;BME280;31849;55.992;37.252;2022-09-16T00:37:30;97676.94;;;7.27;70.97
46111;BME280;31849;55.992;37.252;2022-09-16T00:42:37;97671.38;;;7.49;71.01
46111;BME280;31849;55.992;37.252;2022-09-16T00:47:42;97668.38;;;7.72;70.90
46111;BME280;31849;55.992;37.252;2022-09-16T00:52:47;97681.88;;;7.86;69.76
46111;BME280;31849;55.992;37.252;2022-09-16T00:57:52;97669.91;;;7.81;70.72
46111;BME280;31849;55.992;37.252;2022-09-16T01:02:58;97670.47;;;7.95;70.21
46111;BME280;31849;55.992;37.252;2022-09-16T01:08:03;97664.03;;;8.15;69.99
46111;BME280;31849;55.992;37.252;2022-09-16T01:13:08;97663.91;;;8.19;70.27
46111;BME280;31849;55.992;37.252;2022-09-16T01:18:17;97665.03;;;8.07;70.61
46111;BME280;31849;55.992;37.252;2022-09-16T01:29:34;97655.94;;;7.88;71.26
46111;BME280;31849;55.992;37.252;2022-09-16T01:34:48;97667.47;;;7.73;71.23
46111;BME280;31849;55.992;37.252;2022-09-16T01:40:03;97655.47;;;7.69;71.27
46111;BME280;31849;55.992;37.252;2022-09-16T01:45:14;97641.94;;;7.56;72.05
46111;BME280;31849;55.992;37.252;2022-09-16T01:50:25;97641.09;;;7.54;72.58
46111;BME280;31849;55.992;37.252;2022-09-16T01:55:34;97641.16;;;7.51;72.07
46111;BME280;31849;55.992;37.252;2022-09-16T02:00:40;97637.09;;;7.37;72.25
46111;BME280;31849;55.992;37.252;2022-09-16T02:05:49;97637.81;;;7.47;72.50
46111;BME280;31849;55.992;37.252;2022-09-16T02:10:57;97632.34;;;7.61;71.62
46111;BME280;31849;55.992;37.252;2022-09-16T02:16:05;97633.66;;;7.81;72.32
46111;BME280;31849;55.992;37.252;2022-09-16T02:21:15;97627.19;;;8.03;72.70
46111;BME280;31849;55.992;37.252;2022-09-16T02:26:22;97627.59;;;8.24;72.21
46111;BME280;31849;55.992;37.252;2022-09-16T02:31:31;97621.78;;;8.52;71.97
46111;BME280;31849;55.992;37.252;2022-09-16T02:36:39;97615.44;;;8.65;72.72
46111;BME280;31849;55.992;37.252;2022-09-16T02:41:42;97607.13;;;8.87;72.74
46111;BME280;31849;55.992;37.252;2022-09-16T02:46:52;97609.94;;;9.12;73.50
46111;BME280;31849;55.992;37.252;2022-09-16T02:52:13;97613.91;;;9.25;73.86
46111;BME280;31849;55.992;37.252;2022-09-16T02:57:18;97619.47;;;9.44;72.80
46111;BME280;31849;55.992;37.252;2022-09-16T03:02:22;97628.78;;;9.50;72.23
46111;BME280;31849;55.992;37.252;2022-09-16T03:07:27;97624.97;;;9.63;71.91
46111;BME280;31849;55.992;37.252;2022-09-16T03:12:37;97623.72;;;9.78;71.18
46111;BME280;31849;55.992;37.252;2022-09-16T03:23:37;97614.56;;;9.95;71.91
46111;BME280;31849;55.992;37.252;2022-09-16T03:28:53;97620.50;;;9.98;71.71
46111;BME280;31849;55.992;37.252;2022-09-16T03:34:03;97615.97;;;10.07;72.65
46111;BME280;31849;55.992;37.252;2022-09-16T03:39:10;97609.34;;;10.25;72.57
46111;BME280;31849;55.992;37.252;2022-09-16T03:44:14;97619.75;;;10.25;73.07
46111;BME280;31849;55.992;37.252;2022-09-16T03:49:17;97614.31;;;10.32;72.87
46111;BME280;31849;55.992;37.252;2022-09-16T03:54:22;97620.84;;;10.46;72.67
46111;BME280;31849;55.992;37.252;2022-09-16T03:59:26;97623.03;;;10.58;72.20
46111;BME280;31849;55.992;37.252;2022-09-16T04:04:30;97615.09;;;10.63;72.22
46111;BME280;31849;55.992;37.252;2022-09-16T04:09:34;97618.25;;;10.72;72.28
46111;BME280;31849;55.992;37.252;2022-09-16T04:14:39;97615.56;;;10.76;71.99
46111;BME280;31849;55.992;37.252;2022-09-16T04:19:42;97612.59;;;10.86;71.90
46111;BME280;31849;55.992;37.252;2022-09-16T04:24:47;97611.22;;;11.01;71.71
46111;BME280;31849;55.992;37.252;2022-09-16T04:29:50;97601.91;;;10.96;72.16
46111;BME280;31849;55.992;37.252;2022-09-16T04:34:54;97600.69;;;11.06;72.21
46111;BME280;31849;55.992;37.252;2022-09-16T04:39:59;97607.75;;;11.02;72.95
46111;BME280;31849;55.992;37.252;2022-09-16T04:45:06;97605.84;;;11.07;72.54
46111;BME280;31849;55.992;37.252;2022-09-16T04:50:10;97605.78;;;11.09;72.71
46111;BME280;31849;55.992;37.252;2022-09-16T04:55:15;97605.97;;;11.28;72.25
46111;BME280;31849;55.992;37.252;2022-09-16T05:00:19;97599.22;;;11.24;72.51
46111;BME280;31849;55.992;37.252;2022-09-16T05:05:22;97600.47;;;11.37;72.19
46111;BME280;31849;55.992;37.252;2022-09-16T05:10:27;97595.16;;;11.40;72.74
46111;BME280;31849;55.992;37.252;2022-09-16T05:15:32;97587.00;;;11.50;72.93
46111;BME280;31849;55.992;37.252;2022-09-16T05:20:36;97587.78;;;11.52;72.61
46111;BME280;31849;55.992;37.252;2022-09-16T05:25:41;97579.78;;;11.58;73.12
46111;BME280;31849;55.992;37.252;2022-09-16T05:30:44;97582.78;;;11.71;72.50
46111;BME280;31849;55.992;37.252;2022-09-16T05:35:47;97570.81;;;11.65;72.86
46111;BME280;31849;55.992;37.252;2022-09-16T05:40:57;97528.34;;;11.65;72.96
46111;BME280;31849;55.992;37.252;2022-09-16T05:46:01;97567.03;;;11.98;72.90
46111;BME280;31849;55.992;37.252;2022-09-16T05:51:05;97556.88;;;12.13;72.59
46111;BME280;31849;55.992;37.252;2022-09-16T05:56:12;97561.13;;;12.16;72.72
46111;BME280;31849;55.992;37.252;2022-09-16T06:01:17;97555.91;;;12.16;72.74
46111;BME280;31849;55.992;37.252;2022-09-16T06:06:23;97554.28;;;12.36;72.69
46111;BME280;31849;55.992;37.252;2022-09-16T06:11:28;97549.50;;;12.47;72.14
46111;BME280;31849;55.992;37.252;2022-09-16T06:16:31;97545.81;;;12.51;72.59
46111;BME280;31849;55.992;37.252;2022-09-16T06:21:35;97531.56;;;12.60;72.09
46111;BME280;31849;55.992;37.252;2022-09-16T06:26:41;97530.53;;;12.84;71.79
46111;BME280;31849;55.992;37.252;2022-09-16T06:31:45;97536.06;;;12.97;71.34
46111;BME280;31849;55.992;37.252;2022-09-16T06:36:48;97551.78;;;13.16;71.16
46111;BME280;31849;55.992;37.252;2022-09-16T06:41:53;97543.31;;;13.11;70.97
46111;BME280;31849;55.992;37.252;2022-09-16T06:46:56;97538.72;;;13.16;71.29
46111;BME280;31849;55.992;37.252;2022-09-16T06:52:00;97529.91;;;13.40;70.46
46111;BME280;31849;55.992;37.252;2022-09-16T06:57:05;97522.88;;;13.80;70.14
46111;BME280;31849;55.992;37.252;2022-09-16T07:02:13;97513.56;;;14.30;68.70
46111;BME280;31849;55.992;37.252;2022-09-16T07:07:17;97525.47;;;14.53;67.97
46111;BME280;31849;55.992;37.252;2022-09-16T07:12:22;97518.59;;;14.69;67.47
46111;BME280;31849;55.992;37.252;2022-09-16T07:17:25;97515.59;;;14.77;67.01
46111;BME280;31849;55.992;37.252;2022-09-16T07:22:30;97512.75;;;14.82;67.19
46111;BME280;31849;55.992;37.252;2022-09-16T07:27:35;97522.84;;;14.89;67.12
46111;BME280;31849;55.992;37.252;2022-09-16T07:32:38;97515.41;;;15.15;66.53
46111;BME280;31849;55.992;37.252;2022-09-16T07:37:42;97505.69;;;15.67;65.54
46111;BME280;31849;55.992;37.252;2022-09-16T07:42:46;97490.22;;;16.56;63.47
46111;BME280;31849;55.992;37.252;2022-09-16T07:47:50;97492.16;;;17.13;61.32
46111;BME280;31849;55.992;37.252;2022-09-16T07:52:53;97484.91;;;17.02;61.21
46111;BME280;31849;55.992;37.252;2022-09-16T07:57:58;97485.84;;;17.30;60.15
46111;BME280;31849;55.992;37.252;2022-09-16T08:03:01;97478.34;;;17.10;61.18
46111;BME280;31849;55.992;37.252;2022-09-16T08:08:07;97469.72;;;17.36;61.02
46111;BME280;31849;55.992;37.252;2022-09-16T08:13:11;97462.00;;;18.04;59.22
46111;BME280;31849;55.992;37.252;2022-09-16T08:18:15;97457.38;;;17.66;59.48
46111;BME280;31849;55.992;37.252;2022-09-16T08:23:18;97458.78;;;17.71;59.37
46111;BME280;31849;55.992;37.252;2022-09-16T08:28:23;97446.91;;;17.93;58.86
46111;BME280;31849;55.992;37.252;2022-09-16T08:33:33;97442.38;;;18.22;58.48
46111;BME280;31849;55.992;37.252;2022-09-16T08:38:36;97436.09;;;17.98;57.63
46111;BME280;31849;55.992;37.252;2022-09-16T08:43:44;97433.97;;;17.90;57.76
46111;BME280;31849;55.992;37.252;2022-09-16T08:49:00;97436.00;;;17.99;57.34
46111;BME280;31849;55.992;37.252;2022-09-16T08:54:09;97441.06;;;18.55;56.91
46111;BME280;31849;55.992;37.252;2022-09-16T08:59:19;97429.53;;;18.71;55.01
46111;BME280;31849;55.992;37.252;2022-09-16T09:04:24;97437.50;;;18.56;56.08
46111;BME280;31849;55.992;37.252;2022-09-16T09:09:42;97431.34;;;18.30;55.81
46111;BME280;31849;55.992;37.252;2022-09-16T09:15:02;97432.75;;;18.61;55.34
46111;BME280;31849;55.992;37.252;2022-09-16T09:20:18;97436.78;;;18.67;54.40
46111;BME280;31849;55.992;37.252;2022-09-16T09:25:31;97437.84;;;18.24;55.94
46111;BME280;31849;55.992;37.252;2022-09-16T09:30:41;97435.75;;;17.75;56.47
46111;BME280;31849;55.992;37.252;2022-09-16T09:35:56;97434.31;;;17.56;56.33
46111;BME280;31849;55.992;37.252;2022-09-16T09:41:06;97421.53;;;17.65;57.22
46111;BME280;31849;55.992;37.252;2022-09-16T09:46:17;97429.16;;;17.82;57.08
46111;BME280;31849;55.992;37.252;2022-09-16T09:51:27;97412.66;;;17.80;56.72
46111;BME280;31849;55.992;37.252;2022-09-16T09:56:34;97414.97;;;17.57;56.62
46111;BME280;31849;55.992;37.252;2022-09-16T10:01:41;97407.56;;;17.50;57.20
46111;BME280;31849;55.992;37.252;2022-09-16T10:06:44;97401.72;;;17.59;56.65
46111;BME280;31849;55.992;37.252;2022-09-16T10:11:51;97409.34;;;17.64;56.32
46111;BME280;31849;55.992;37.252;2022-09-16T10:16:59;97394.50;;;17.63;56.21
46111;BME280;31849;55.992;37.252;2022-09-16T10:22:09;97403.72;;;17.83;56.18
46111;BME280;31849;55.992;37.252;2022-09-16T10:27:21;97393.97;;;17.85;56.62
46111;BME280;31849;55.992;37.252;2022-09-16T10:32:28;97383.69;;;17.95;56.54
46111;BME280;31849;55.992;37.252;2022-09-16T10:37:31;97385.03;;;17.87;57.07
46111;BME280;31849;55.992;37.252;2022-09-16T10:42:35;97369.44;;;17.84;56.85
46111;BME280;31849;55.992;37.252;2022-09-16T10:47:40;97366.94;;;17.55;56.84
46111;BME280;31849;55.992;37.252;2022-09-16T10:52:45;97374.66;;;17.44;57.59
46111;BME280;31849;55.992;37.252;2022-09-16T10:57:49;97363.75;;;17.09;58.98
46111;BME280;31849;55.992;37.252;2022-09-16T11:08:48;97352.81;;;16.14;63.89
46111;BME280;31849;55.992;37.252;2022-09-16T11:14:00;97349.34;;;15.83;65.76
46111;BME280;31849;55.992;37.252;2022-09-16T11:19:11;97351.06;;;15.68;66.18
46111;BME280;31849;55.992;37.252;2022-09-16T11:24:29;97349.38;;;15.51;68.15
46111;BME280;31849;55.992;37.252;2022-09-16T11:29:46;97349.22;;;15.22;69.60
46111;BME280;31849;55.992;37.252;2022-09-16T11:35:06;97342.97;;;14.93;70.92
46111;BME280;31849;55.992;37.252;2022-09-16T11:40:27;97336.63;;;14.97;70.19
46111;BME280;31849;55.992;37.252;2022-09-16T11:45:43;97333.78;;;15.02;69.47
46111;BME280;31849;55.992;37.252;2022-09-16T11:50:54;97332.44;;;15.10;69.47
46111;BME280;31849;55.992;37.252;2022-09-16T11:56:05;97335.78;;;15.12;69.31
46111;BME280;31849;55.992;37.252;2022-09-16T12:01:16;97324.56;;;15.10;69.73
46111;BME280;31849;55.992;37.252;2022-09-16T12:06:26;97321.69;;;14.99;70.58
46111;BME280;31849;55.992;37.252;2022-09-16T12:11:34;97312.50;;;14.76;71.43
46111;BME280;31849;55.992;37.252;2022-09-16T12:16:44;97315.78;;;14.95;70.66
46111;BME280;31849;55.992;37.252;2022-09-16T12:21:54;97299.75;;;15.02;70.46
46111;BME280;31849;55.992;37.252;2022-09-16T12:27:04;97304.28;;;15.14;70.36
46111;BME280;31849;55.992;37.252;2022-09-16T12:32:12;97303.53;;;15.12;70.77
46111;BME280;31849;55.992;37.252;2022-09-16T12:37:34;97303.53;;;15.28;70.81
46111;BME280;31849;55.992;37.252;2022-09-16T12:42:59;97300.31;;;15.39;70.67
46111;BME280;31849;55.992;37.252;2022-09-16T12:48:39;97298.78;;;15.35;70.40
46111;BME280;31849;55.992;37.252;2022-09-16T12:59:39;97297.47;;;15.11;71.49
46111;BME280;31849;55.992;37.252;2022-09-16T13:04:50;97297.88;;;15.04;71.25
46111;BME280;31849;55.992;37.252;2022-09-16T13:10:03;97310.22;;;15.18;71.71
46111;BME280;31849;55.992;37.252;2022-09-16T13:15:22;97317.06;;;15.20;70.98
46111;BME280;31849;55.992;37.252;2022-09-16T13:20:30;97312.91;;;15.00;72.17
46111;BME280;31849;55.992;37.252;2022-09-16T13:25:44;97317.88;;;14.73;73.42
46111;BME280;31849;55.992;37.252;2022-09-16T13:30:52;97304.91;;;14.54;73.38
46111;BME280;31849;55.992;37.252;2022-09-16T13:36:14;97299.69;;;14.54;74.34
46111;BME280;31849;55.992;37.252;2022-09-16T13:41:32;97289.88;;;14.57;73.66
46111;BME280;31849;55.992;37.252;2022-09-16T13:46:38;97300.50;;;14.72;73.09
46111;BME280;31849;55.992;37.252;2022-09-16T13:51:43;97295.19;;;14.73;72.85
46111;BME280;31849;55.992;37.252;2022-09-16T13:56:55;97281.28;;;14.73;73.01
46111;BME280;31849;55.992;37.252;2022-09-16T14:02:07;97297.50;;;14.62;74.47
46111;BME280;31849;55.992;37.252;2022-09-16T14:07:30;97287.56;;;14.35;75.33
46111;BME280;31849;55.992;37.252;2022-09-16T14:12:43;97292.38;;;14.27;74.89
46111;BME280;31849;55.992;37.252;2022-09-16T14:17:56;97300.00;;;14.14;75.48
46111;BME280;31849;55.992;37.252;2022-09-16T14:23:02;97278.50;;;14.09;75.41
46111;BME280;31849;55.992;37.252;2022-09-16T14:28:17;97278.03;;;14.01;75.31
46111;BME280;31849;55.992;37.252;2022-09-16T14:33:25;97262.59;;;13.96;75.74
46111;BME280;31849;55.992;37.252;2022-09-16T14:38:33;97255.81;;;13.92;75.82
46111;BME280;31849;55.992;37.252;2022-09-16T14:43:47;97249.25;;;13.67;76.51
46111;BME280;31849;55.992;37.252;2022-09-16T14:48:53;97229.31;;;13.12;77.88
46111;BME280;31849;55.992;37.252;2022-09-16T14:53:58;97240.88;;;13.07;78.38
46111;BME280;31849;55.992;37.252;2022-09-16T14:59:13;97243.97;;;12.96;79.00
46111;BME280;31849;55.992;37.252;2022-09-16T15:04:24;97250.75;;;13.00;78.91
46111;BME280;31849;55.992;37.252;2022-09-16T15:09:33;97257.59;;;12.83;79.34
46111;BME280;31849;55.992;37.252;2022-09-16T15:14:39;97264.31;;;12.89;78.86
46111;BME280;31849;55.992;37.252;2022-09-16T15:19:48;97249.72;;;12.85;78.68
46111;BME280;31849;55.992;37.252;2022-09-16T15:24:55;97252.19;;;12.69;79.34
46111;BME280;31849;55.992;37.252;2022-09-16T15:30:00;97254.84;;;12.67;78.40
46111;BME280;31849;55.992;37.252;2022-09-16T15:35:20;97248.53;;;12.54;78.58
46111;BME280;31849;55.992;37.252;2022-09-16T15:40:31;97226.97;;;12.51;78.29
46111;BME280;31849;55.992;37.252;2022-09-16T15:45:37;97223.03;;;12.42;78.73
46111;BME280;31849;55.992;37.252;2022-09-16T15:50:45;97216.84;;;12.44;78.80
46111;BME280;31849;55.992;37.252;2022-09-16T15:55:56;97217.25;;;12.54;78.38
46111;BME280;31849;55.992;37.252;2022-09-16T16:01:06;97216.47;;;12.52;78.67
46111;BME280;31849;55.992;37.252;2022-09-16T16:06:13;97224.84;;;12.59;78.51
46111;BME280;31849;55.992;37.252;2022-09-16T16:11:18;97231.69;;;12.61;78.15
46111;BME280;31849;55.992;37.252;2022-09-16T16:16:22;97225.06;;;12.54;79.02
46111;BME280;31849;55.992;37.252;2022-09-16T16:21:29;97230.84;;;12.61;78.82
46111;BME280;31849;55.992;37.252;2022-09-16T16:26:32;97220.63;;;12.75;78.53
46111;BME280;31849;55.992;37.252;2022-09-16T16:31:36;97222.44;;;12.73;78.59
46111;BME280;31849;55.992;37.252;2022-09-16T16:36:42;97216.09;;;12.79;78.28
46111;BME280;31849;55.992;37.252;2022-09-16T16:41:45;97223.09;;;12.78;78.34
46111;BME280;31849;55.992;37.252;2022-09-16T16:46:50;97209.53;;;12.89;78.16
46111;BME280;31849;55.992;37.252;2022-09-16T16:51:55;97207.81;;;13.07;76.87
46111;BME280;31849;55.992;37.252;2022-09-16T16:57:00;97211.41;;;13.22;76.85
46111;BME280;31849;55.992;37.252;2022-09-16T17:02:05;97206.75;;;13.29;76.64
46111;BME280;31849;55.992;37.252;2022-09-16T17:07:10;97207.78;;;13.44;76.23
46111;BME280;31849;55.992;37.252;2022-09-16T17:12:30;97223.75;;;13.38;76.46
46111;BME280;31849;55.992;37.252;2022-09-16T17:17:34;97217.53;;;13.40;76.58
46111;BME280;31849;55.992;37.252;2022-09-16T17:22:40;97223.97;;;13.50;76.11
46111;BME280;31849;55.992;37.252;2022-09-16T17:27:44;97225.91;;;13.64;75.60
46111;BME280;31849;55.992;37.252;2022-09-16T17:32:47;97224.06;;;13.66;75.59
46111;BME280;31849;55.992;37.252;2022-09-16T17:37:53;97207.25;;;13.54;75.87
46111;BME280;31849;55.992;37.252;2022-09-16T17:42:56;97219.97;;;13.78;75.47
46111;BME280;31849;55.992;37.252;2022-09-16T17:48:01;97230.09;;;13.67;75.66
46111;BME280;31849;55.992;37.252;2022-09-16T17:53:06;97217.44;;;13.59;75.99
46111;BME280;31849;55.992;37.252;2022-09-16T17:58:10;97218.91;;;13.47;76.04
46111;BME280;31849;55.992;37.252;2022-09-16T18:03:13;97223.81;;;13.36;76.07
46111;BME280;31849;55.992;37.252;2022-09-16T18:08:19;97215.66;;;13.25;76.52
46111;BME280;31849;55.992;37.252;2022-09-16T18:13:23;97212.19;;;13.07;76.83
46111;BME280;31849;55.992;37.252;2022-09-16T18:18:27;97215.41;;;13.12;76.67
46111;BME280;31849;55.992;37.252;2022-09-16T18:23:34;97211.41;;;13.22;76.45
46111;BME280;31849;55.992;37.252;2022-09-16T18:28:40;97216.72;;;13.20;76.49
46111;BME280;31849;55.992;37.252;2022-09-16T18:34:04;97213.34;;;13.18;76.30
46111;BME280;31849;55.992;37.252;2022-09-16T18:39:12;97211.81;;;13.14;75.91
46111;BME280;31849;55.992;37.252;2022-09-16T18:44:17;97208.25;;;12.98;76.82
46111;BME280;31849;55.992;37.252;2022-09-16T18:49:21;97200.88;;;12.89;76.63
46111;BME280;31849;55.992;37.252;2022-09-16T18:54:28;97198.28;;;12.89;77.12
46111;BME280;31849;55.992;37.252;2022-09-16T18:59:37;97203.34;;;12.92;77.06
46111;BME280;31849;55.992;37.252;2022-09-16T19:04:41;97204.44;;;13.05;77.01
46111;BME280;31849;55.992;37.252;2022-09-16T19:09:46;97202.84;;;13.20;76.29
46111;BME280;31849;55.992;37.252;2022-09-16T19:14:51;97212.56;;;13.16;76.25
46111;BME280;31849;55.992;37.252;2022-09-16T19:19:57;97211.16;;;13.09;76.44
46111;BME280;31849;55.992;37.252;2022-09-16T19:25:03;97216.69;;;13.03;75.98
46111;BME280;31849;55.992;37.252;2022-09-16T19:30:07;97218.09;;;12.74;76.87
46111;BME280;31849;55.992;37.252;2022-09-16T19:35:10;97232.06;;;12.54;76.86
46111;BME280;31849;55.992;37.252;2022-09-16T19:40:16;97239.38;;;12.64;77.20
46111;BME280;31849;55.992;37.252;2022-09-16T19:45:20;97215.34;;;12.58;77.09
46111;BME280;31849;55.992;37.252;2022-09-16T19:50:28;97231.41;;;12.67;77.24
46111;BME280;31849;55.992;37.252;2022-09-16T19:55:33;97231.22;;;12.53;77.38
46111;BME280;31849;55.992;37.252;2022-09-16T20:00:36;97240.72;;;12.35;77.97
46111;BME280;31849;55.992;37.252;2022-09-16T20:05:59;97243.72;;;12.26;77.87
46111;BME280;31849;55.992;37.252;2022-09-16T20:11:07;97248.50;;;12.16;77.82
46111;BME280;31849;55.992;37.252;2022-09-16T20:16:11;97249.16;;;12.01;77.99
46111;BME280;31849;55.992;37.252;2022-09-16T20:21:17;97252.09;;;11.93;77.74
46111;BME280;31849;55.992;37.252;2022-09-16T20:26:22;97265.44;;;11.85;78.42
46111;BME280;31849;55.992;37.252;2022-09-16T20:31:27;97263.09;;;11.79;78.47
46111;BME280;31849;55.992;37.252;2022-09-16T20:36:35;97261.78;;;11.69;78.54
46111;BME280;31849;55.992;37.252;2022-09-16T20:41:41;97264.94;;;11.55;79.10
46111;BME280;31849;55.992;37.252;2022-09-16T20:46:46;97269.66;;;11.47;78.86
46111;BME280;31849;55.992;37.252;2022-09-16T20:51:51;97275.16;;;11.39;79.03
46111;BME280;31849;55.992;37.252;2022-09-16T20:56:55;97267.72;;;11.30;79.37
46111;BME280;31849;55.992;37.252;2022-09-16T21:01:59;97292.13;;;11.27;78.99
46111;BME280;31849;55.992;37.252;2022-09-16T21:07:05;97303.84;;;11.37;78.35
46111;BME280;31849;55.992;37.252;2022-09-16T21:12:09;97298.28;;;11.47;78.87
46111;BME280;31849;55.992;37.252;2022-09-16T21:17:12;97308.50;;;11.51;78.79
46111;BME280;31849;55.992;37.252;2022-09-16T21:22:20;97308.13;;;11.38;79.01
46111;BME280;31849;55.992;37.252;2022-09-16T21:27:25;97297.59;;;11.41;78.82
46111;BME280;31849;55.992;37.252;2022-09-16T21:32:28;97313.09;;;11.44;79.50
46111;BME280;31849;55.992;37.252;2022-09-16T21:37:33;97313.47;;;11.35;78.71
46111;BME280;31849;55.992;37.252;2022-09-16T21:42:38;97316.31;;;11.29;78.72
46111;BME280;31849;55.992;37.252;2022-09-16T21:47:41;97321.63;;;11.26;78.97
46111;BME280;31849;55.992;37.252;2022-09-16T21:52:45;97326.13;;;11.22;78.63
46111;BME280;31849;55.992;37.252;2022-09-16T21:57:49;97322.00;;;11.17;78.77
46111;BME280;31849;55.992;37.252;2022-09-16T22:02:52;97326.56;;;11.10;78.17
46111;BME280;31849;55.992;37.252;2022-09-16T22:07:58;97333.47;;;10.89;78.70
46111;BME280;31849;55.992;37.252;2022-09-16T22:13:03;97340.13;;;10.72;78.51
46111;BME280;31849;55.992;37.252;2022-09-16T22:18:06;97342.34;;;10.60;79.03
46111;BME280;31849;55.992;37.252;2022-09-16T22:23:09;97343.56;;;10.49;78.69
46111;BME280;31849;55.992;37.252;2022-09-16T22:28:14;97355.19;;;10.39;78.72
46111;BME280;31849;55.992;37.252;2022-09-16T22:33:17;97357.13;;;10.32;78.36
46111;BME280;31849;55.992;37.252;2022-09-16T22:38:20;97361.28;;;10.13;78.84
46111;BME280;31849;55.992;37.252;2022-09-16T22:43:25;97363.00;;;10.12;78.80
46111;BME280;31849;55.992;37.252;2022-09-16T22:48:28;97357.31;;;10.02;78.52
46111;BME280;31849;55.992;37.252;2022-09-16T22:53:33;97375.75;;;9.95;78.97
46111;BME280;31849;55.992;37.252;2022-09-16T22:58:38;97367.03;;;9.96;78.68
46111;BME280;31849;55.992;37.252;2022-09-16T23:03:41;97367.69;;;10.02;78.60
46111;BME280;31849;55.992;37.252;2022-09-16T23:08:45;97375.59;;;9.99;78.47
46111;BME280;31849;55.992;37.252;2022-09-16T23:13:50;97371.44;;;9.94;78.66
46111;BME280;31849;55.992;37.252;2022-09-16T23:18:57;97361.94;;;9.93;78.57
46111;BME280;31849;55.992;37.252;2022-09-16T23:24:02;97373.34;;;10.14;78.20
46111;BME280;31849;55.992;37.252;2022-09-16T23:29:09;97386.94;;;10.22;78.25
46111;BME280;31849;55.992;37.252;2022-09-16T23:34:15;97396.03;;;10.35;76.90
46111;BME280;31849;55.992;37.252;2022-09-16T23:39:19;97391.22;;;9.98;77.83
46111;BME280;31849;55.992;37.252;2022-09-16T23:44:23;97390.91;;;9.80;78.51
46111;BME280;31849;55.992;37.252;2022-09-16T23:49:27;97389.34;;;9.75;78.34
46111;BME280;31849;55.992;37.252;2022-09-16T23:54:30;97386.06;;;9.70;78.43
46111;BME280;31849;55.992;37.252;2022-09-16T23:59:35;97385.47;;;9.61;78.54
